Mill Valley, CA (94941)

11:19 AM PDT on April 24, 2017 (GMT -0700)
Tamalpais Park / Park & Miller Aves | | Change Station

Elev 43 ft 37.90 °N, 122.54 °W | Updated 14 seconds ago

Overcast
Overcast
57.4 °F
Feels Like 57.4 °F
N
2.0
Wind Variable Wind from SSW
Gusts 2.5 mph

Today
High -- | Low -- °F
--% Chance of Precip.
Yesterday
High -- | Low -- °F
Precip. -- in
Pressure 30.10 in
Visibility 10.0 miles
Clouds Scattered Clouds 1000 ft
Overcast 1800 ft
Dew Point 55 °F
Humidity 91%
Rainfall 0.04 in
Snow Depth Not available.
6:22 AM 7:54 PM
Waning Crescent, 4% visible
METAR KOAK 241753Z 25012KT 10SM SCT010 OVC018 16/12 A3010 RMK AO2 SLP192 T01560117 10156 20128 53011
Pressure 30.10 in
Visibility 10.0 miles
Clouds Scattered Clouds 1000 ft
Overcast 1800 ft
Dew Point 55 °F
Humidity 91%
Rainfall 0.04 in
Snow Depth Not available.
6:22 AM 7:54 PM
Waning Crescent, 4% visible
METAR KOAK 241753Z 25012KT 10SM SCT010 OVC018 16/12 A3010 RMK AO2 SLP192 T01560117 10156 20128 53011

Get Severe Weather Alerts

Thanks for signing up!

Be on the lookout for a verification email in your inbox.

You'll start receiving the daily forecast at 8 AM.

×

10-Day Weather Forecast

Almanac

Astronomy

Apr. 24, 2017 Rise Set
Actual Time
Civil Twilight
Nautical Twilight
Astronomical Twilight
Moon
Length of Visible Light
Length of Day
Tomorrow will be .
, % of the Moon is Illuminated

Today's Extremes

State Highs State Lows

Community

WunderPhotos

WunderBlog® & News

Nearby

Air Quality

  Air Quality AQ Index Pollutant
Not available.

Snow Depth

Station Depth Elevation

Earthquake Activity

City Distance Mag. Time & Date
Minimum magnitude displayed is 2.5.

Coastal Water Temperatures

Place Temperature

Stations

Nearby Weather Stations

Station Location Temp. Windchill Dew Point Humidity Wind Precip. Elev Updated Type
                   

Watches & Warnings

There are currently no watches in effect.